Celtic Explorer — EIGB — position and weather

sailwx.info

Track history (hours):
 
Tides and Currents Weather Stations Pressure Air Temp Water Temp Dewpoint Dewpoint Depression Visibility Wind Speed Wind Dir Waves Ship Positions

Oceanographic research ship Celtic Explorer (Ireland)

Detailed information on ship capabilities available from University of Delaware's Ocean Information Center.

Last reported at 2018-Feb-21 19:13 UTC. Time now 2018-Feb-23 14:18 UTC.
Position N 54°01' W 011°32'.

Type: . MMSI: 250487000.

Date/timePositionNaut miles runAvg speedWind from/ knotsBaromVisibWave heightAir tempDewpointWater temp
2018-Feb-21 19:13N 54°01' W 011°32'2 3.3
2018-Feb-21 18:46N 54°02' W 011°30'16 8.9
2018-Feb-21 16:55N 54°17' W 011°20'7 9.2
2018-Feb-21 16:10N 54°24' W 011°18'1 4.4
2018-Feb-21 16:00N 54°25' W 011°17'6 3.2
2018-Feb-21 14:02N 54°27' W 011°07'710.1
2018-Feb-21 13:19N 54°25' W 010°55'2210.4
2018-Feb-21 11:10N 54°19' W 010°18'1 2.2
2018-Feb-21 10:47N 54°18' W 010°19'3 3.0
2018-Feb-21 09:44N 54°17' W 010°24'2 6.0
2018-Feb-21 09:24N 54°16' W 010°27'410.5
2018-Feb-21 09:00N 54°15' W 010°34'510.5
2018-Feb-21 08:30N 54°13' W 010°43'26 6.1
2018-Feb-21 04:16N 53°47' W 010°50'3 8.5
2018-Feb-21 03:51N 53°44' W 010°51'1 2.9
2018-Feb-21 03:24N 53°43' W 010°52'15 6.2
2018-Feb-21 00:59N 53°29' W 010°42'610.1
2018-Feb-21 00:25N 53°24' W 010°36'510.3
2018-Feb-20 23:57N 53°21' W 010°32'510.1
2018-Feb-20 23:28N 53°17' W 010°27'1810.0
2018-Feb-20 21:41N 53°02' W 010°09'310.1
2018-Feb-20 21:25N 52°60' W 010°06'11 2.4
2018-Feb-20 16:52N 53°08' W 009°54'  
Track history (hours):
 
Tides and Currents Weather Stations Pressure Air Temp Water Temp Dewpoint Dewpoint Depression Visibility Wind Speed Wind Dir Waves Ship Positions

Oceanographic research ship Celtic Explorer (Ireland)

Detailed information on ship capabilities available from University of Delaware's Ocean Information Center.

Last reported at 2018-Feb-21 19:13 UTC. Time now 2018-Feb-23 14:18 UTC.
Position N 54°01' W 011°32'.

Type: . MMSI: 250487000.

Date/timePositionNaut miles runAvg speedWind from/ knotsBaromVisibWave heightAir tempDewpointWater temp
2018-Feb-21 19:13N 54°01' W 011°32'2 3.3
2018-Feb-21 18:46N 54°02' W 011°30'16 8.9
2018-Feb-21 16:55N 54°17' W 011°20'7 9.2
2018-Feb-21 16:10N 54°24' W 011°18'1 4.4
2018-Feb-21 16:00N 54°25' W 011°17'6 3.2
2018-Feb-21 14:02N 54°27' W 011°07'710.1
2018-Feb-21 13:19N 54°25' W 010°55'2210.4
2018-Feb-21 11:10N 54°19' W 010°18'1 2.2
2018-Feb-21 10:47N 54°18' W 010°19'3 3.0
2018-Feb-21 09:44N 54°17' W 010°24'2 6.0
2018-Feb-21 09:24N 54°16' W 010°27'410.5
2018-Feb-21 09:00N 54°15' W 010°34'510.5
2018-Feb-21 08:30N 54°13' W 010°43'26 6.1
2018-Feb-21 04:16N 53°47' W 010°50'3 8.5
2018-Feb-21 03:51N 53°44' W 010°51'1 2.9
2018-Feb-21 03:24N 53°43' W 010°52'15 6.2
2018-Feb-21 00:59N 53°29' W 010°42'610.1
2018-Feb-21 00:25N 53°24' W 010°36'510.3
2018-Feb-20 23:57N 53°21' W 010°32'510.1
2018-Feb-20 23:28N 53°17' W 010°27'1810.0
2018-Feb-20 21:41N 53°02' W 010°09'310.1
2018-Feb-20 21:25N 52°60' W 010°06'11 2.4
2018-Feb-20 16:52N 53°08' W 009°54'  

Dump ship's entire track history